Daphne, AL (36526)

11:00 PM CST on January 18, 2017 (GMT -0600)
DAPHNE SUNSETS | | Change Station
Active Advisory: Marine Fog Advisory

Elev 30 ft 30.60 °N, 87.91 °W | Updated 13 minutes ago

Fog
Fog
66.7 °F
Feels Like 66.7 °F
N
0.0
Wind Variable Wind from South
Gusts 2.0 mph

Today
High -- | Low -- °F
--% Chance of Precip.
Yesterday
High -- | Low -- °F
Precip. -- in
Pressure 30.08 in
Visibility 0.5 miles
Clouds Overcast 300 ft
Dew Point 65 °F
Humidity 95%
Rainfall 0.00 in
Snow Depth Not available.
6:48 AM 5:15 PM
Waning Gibbous, 57% visible
METAR KCQF 190435Z AUTO 00000KT 1/2SM FG OVC003 18/18 A3008 RMK AO2
Pressure 30.08 in
Visibility 0.5 miles
Clouds Overcast 300 ft
Dew Point 65 °F
Humidity 95%
Rainfall 0.00 in
Snow Depth Not available.
6:48 AM 5:15 PM
Waning Gibbous, 57% visible
METAR KCQF 190435Z AUTO 00000KT 1/2SM FG OVC003 18/18 A3008 RMK AO2

Get Your Daily Forecast Email!

Thanks for signing up!

Be on the lookout for a verification email in your inbox.

You'll start receiving the daily forecast at 8 AM.

×

10-Day Weather Forecast

Almanac

Astronomy

Jan. 18, 2017 Rise Set
Actual Time
Civil Twilight
Nautical Twilight
Astronomical Twilight
Moon
Length of Visible Light
Length of Day
Tomorrow will be .
, % of the Moon is Illuminated

Today's Extremes

State Highs State Lows

Community

WunderPhotos

Upload Photos

1,962,540 photos uploaded!

WunderBlog® & News

Nearby

Air Quality

  Air Quality AQ Index Pollutant
Not available.

Snow Depth

Station Depth Elevation

Earthquake Activity

City Distance Mag. Time & Date
Minimum magnitude displayed is 2.5.

Coastal Water Temperatures

Place Temperature

Stations

Nearby Weather Stations

Station Location Temp. Windchill Dew Point Humidity Wind Precip. Elev Updated Type
                   

Watches & Warnings

Marine Fog Advisory
Issued: 1:37 PM CST Jan. 18, 2017 – National Weather Service

... Dense fog advisory in effect from 6 PM this evening to noon
CST Thursday...

The National Weather Service in Mobile has issued a dense fog
advisory... which is in effect from 6 PM this evening to noon CST
Thursday.

* Visibility... 1 mile or less.

Precautionary/preparedness actions...

A dense fog advisory means visibilities will frequently be
reduced to less than one mile. Inexperienced mariners...
especially those operating smaller vessels should avoid
navigating in these conditions.